Time;durP1;ratioP1;P1;durP2;ratioP2;P2;SDS_P1;SDS_P2;PMS_P1;PMS_P2;Temp;Humidity;BMP_temperature;BMP_pressure;BME280_temperature;BME280_humidity;BME280_pressure;Samples;Min_cycle;Max_cycle;Signal;HPM_P1;HPM_P2
2024/01/08 04:53:15;;;;;;;;;;;-4.30;99.90;;;;;;4988591;28;19972;-76
2024/01/08 04:55:41;;;;;;;;;;;-4.30;99.90;;;;;;4996149;28;19930;-76
2024/01/08 04:58:08;;;;;;;;;;;-4.30;99.90;;;;;;4995996;28;19926;-76
2024/01/08 05:00:35;;;;;;;;;;;-4.30;99.90;;;;;;5005154;28;19925;-75
2024/01/08 05:03:01;;;;;;;;;;;-4.30;99.90;;;;;;5014906;28;19926;-75
2024/01/08 05:05:28;;;;;;;;;;;-4.40;99.90;;;;;;5015055;28;20379;-73
2024/01/08 05:07:55;;;;;;;;;;;-4.40;99.90;;;;;;5015299;28;19929;-73
2024/01/08 05:10:22;;;;;;;;;;;-4.40;99.90;;;;;;5014832;28;19949;-73
2024/01/08 05:12:49;;;;;;;;;;;-4.40;99.90;;;;;;5015009;28;19932;-73
2024/01/08 05:15:16;;;;;;;;;;;-4.30;99.90;;;;;;5014956;28;19925;-73
2024/01/08 05:17:42;;;;;;;;;;;-4.40;99.90;;;;;;5014822;28;19925;-72
2024/01/08 05:20:09;;;;;;;;;;;-4.40;99.90;;;;;;5014925;28;19933;-73
2024/01/08 05:22:36;;;;;;;;;;;-4.40;99.90;;;;;;5014599;28;20394;-73
2024/01/08 05:25:03;;;;;;;;;;;-4.50;99.90;;;;;;5014985;28;19949;-73
2024/01/08 05:27:31;;;;;;;;;;;-4.40;99.90;;;;;;5014826;28;19932;-74
2024/01/08 05:29:57;;;;;;;;;;;-4.50;99.90;;;;;;5014488;28;19926;-74
2024/01/08 05:32:24;;;;;;;;;;;-4.40;99.90;;;;;;5017011;28;19925;-74
2024/01/08 05:34:50;;;;;;;;;;;-4.50;99.90;;;;;;5021750;28;20008;-74
2024/01/08 05:37:17;;;;;;;;;;;-4.50;99.90;;;;;;5020608;28;19933;-74
2024/01/08 05:39:44;;;;;;;;;;;-4.50;99.90;;;;;;5019372;28;19933;-73
2024/01/08 05:42:10;;;;;;;;;;;-4.50;99.90;;;;;;5018376;28;20378;-73
2024/01/08 05:44:38;;;;;;;;;;;-4.60;99.90;;;;;;5017343;28;19932;-73
2024/01/08 05:47:07;;;;;;;;;;;-4.50;99.90;;;;;;5018307;28;19952;-73
2024/01/08 05:49:35;;;;;;;;;;;-4.50;99.90;;;;;;5028804;28;19949;-68
2024/01/08 05:52:01;;;;;;;;;;;-4.60;99.90;;;;;;5026012;28;19932;-72
2024/01/08 05:54:28;;;;;;;;;;;-4.50;99.90;;;;;;5019821;28;19926;-71
2024/01/08 05:56:55;;;;;;;;;;;-4.40;99.90;;;;;;5018186;28;19926;-72
2024/01/08 05:59:34;;;;;;;;;;;-4.50;99.90;;;;;;5018333;28;20353;-75
2024/01/08 06:02:03;;;;;;;;;;;-4.60;99.90;;;;;;5021030;28;19932;-75
2024/01/08 06:04:30;;;;;;;;;;;-4.60;99.90;;;;;;5021503;28;20016;-75
2024/01/08 06:06:59;;;;;;;;;;;-4.60;99.90;;;;;;5021266;28;20350;-75
2024/01/08 06:09:26;;;;;;;;;;;-4.70;99.90;;;;;;5021073;28;19956;-76
2024/01/08 06:11:53;;;;;;;;;;;-4.70;99.90;;;;;;5021740;28;19976;-75
2024/01/08 06:14:20;;;;;;;;;;;-4.70;99.90;;;;;;5023643;28;19967;-75
2024/01/08 06:16:47;;;;;;;;;;;-4.60;99.90;;;;;;5022615;28;19926;-75
2024/01/08 06:19:15;;;;;;;;;;;-4.60;99.90;;;;;;5022842;28;19932;-74
2024/01/08 06:21:42;;;;;;;;;;;-4.60;99.90;;;;;;5019241;28;19932;-74
2024/01/08 06:24:08;;;;;;;;;;;-4.60;99.90;;;;;;5020347;28;19930;-74
2024/01/08 06:26:36;;;;;;;;;;;-4.60;99.90;;;;;;5022005;28;19925;-75
2024/01/08 06:29:03;;;;;;;;;;;-4.60;99.90;;;;;;5022512;28;19932;-74
2024/01/08 06:31:30;;;;;;;;;;;-4.60;99.90;;;;;;5020995;28;19980;-74
2024/01/08 06:33:57;;;;;;;;;;;-4.60;99.90;;;;;;5022604;28;19933;-74
2024/01/08 06:36:24;;;;;;;;;;;-4.70;99.90;;;;;;5021414;28;19954;-74
2024/01/08 06:38:51;;;;;;;;;;;-4.80;99.90;;;;;;5021218;28;19925;-74
2024/01/08 06:41:17;;;;;;;;;;;-4.80;99.90;;;;;;5021371;28;20295;-76
2024/01/08 06:43:44;;;;;;;;;;;-4.90;99.90;;;;;;5025910;28;19933;-74
2024/01/08 06:46:12;;;;;;;;;;;-4.90;99.90;;;;;;5024583;28;19926;-74
2024/01/08 06:48:38;;;;;;;;;;;-4.90;99.90;;;;;;5024219;28;19925;-74
2024/01/08 06:51:08;;;;;;;;;;;-4.90;99.90;;;;;;5023174;28;19929;-74
2024/01/08 06:53:36;;;;;;;;;;;-4.80;99.90;;;;;;5023565;28;19926;-75
2024/01/08 06:56:02;;;;;;;;;;;-4.80;99.90;;;;;;5023216;28;19925;-74
2024/01/08 06:58:29;;;;;;;;;;;-4.90;99.90;;;;;;5024733;28;19929;-74
2024/01/08 07:00:56;;;;;;;;;;;-4.90;99.90;;;;;;5022921;28;19925;-75
2024/01/08 07:03:23;;;;;;;;;;;-4.90;99.90;;;;;;5024187;28;19926;-75
2024/01/08 07:05:50;;;;;;;;;;;-4.90;99.90;;;;;;5021787;28;19976;-76
2024/01/08 07:08:17;;;;;;;;;;;-5.00;99.90;;;;;;5023023;28;19949;-75
2024/01/08 07:10:46;;;;;;;;;;;-4.90;99.90;;;;;;5024639;28;19932;-76
2024/01/08 07:13:13;;;;;;;;;;;-4.90;99.90;;;;;;5024430;28;19964;-76
2024/01/08 07:15:43;;;;;;;;;;;-5.00;99.90;;;;;;5024789;28;20024;-75
2024/01/08 07:18:10;;;;;;;;;;;-5.00;99.90;;;;;;5024752;28;19952;-76
2024/01/08 07:20:38;;;;;;;;;;;-5.00;99.90;;;;;;5023738;28;19933;-76
2024/01/08 07:23:05;;;;;;;;;;;-5.00;99.90;;;;;;5024605;28;20383;-75
2024/01/08 07:25:32;;;;;;;;;;;-5.10;99.90;;;;;;5023290;28;19926;-75
2024/01/08 07:28:01;;;;;;;;;;;-5.00;99.90;;;;;;5022115;28;19925;-76
2024/01/08 07:30:28;;;;;;;;;;;-5.00;99.90;;;;;;5024553;28;19933;-75
2024/01/08 07:32:55;;;;;;;;;;;-5.00;99.90;;;;;;5024559;28;19926;-74
2024/01/08 07:35:22;;;;;;;;;;;-5.00;99.90;;;;;;5025336;28;19925;-75
2024/01/08 07:37:54;;;;;;;;;;;-5.00;99.90;;;;;;5024775;28;20383;-75
2024/01/08 07:40:21;;;;;;;;;;;-4.90;99.90;;;;;;5021213;28;20025;-74
2024/01/08 07:42:48;;;;;;;;;;;-5.00;99.90;;;;;;5021032;28;19925;-75
2024/01/08 07:45:16;;;;;;;;;;;-5.00;99.90;;;;;;5020118;28;19930;-75
2024/01/08 07:47:43;;;;;;;;;;;-4.90;99.90;;;;;;5019393;28;20387;-74
2024/01/08 07:50:10;;;;;;;;;;;-4.90;99.90;;;;;;5020148;28;19926;-75
2024/01/08 07:52:37;;;;;;;;;;;-4.90;99.90;;;;;;5019019;28;19948;-75
2024/01/08 07:55:04;;;;;;;;;;;-4.90;99.90;;;;;;5019318;28;19925;-75
2024/01/08 07:57:30;;;;;;;;;;;-4.90;99.90;;;;;;5020841;28;19930;-75
2024/01/08 07:59:58;;;;;;;;;;;-4.90;99.90;;;;;;5019954;28;19925;-75
2024/01/08 08:02:26;;;;;;;;;;;-4.90;99.90;;;;;;5019355;28;19925;-75
2024/01/08 08:04:53;;;;;;;;;;;-4.90;99.90;;;;;;5018769;28;19991;-74
2024/01/08 08:07:20;;;;;;;;;;;-4.90;99.90;;;;;;5018721;28;20088;-75
2024/01/08 08:09:47;;;;;;;;;;;-4.90;99.90;;;;;;5017179;28;20028;-75
2024/01/08 08:12:13;;;;;;;;;;;-4.90;99.90;;;;;;5015722;28;19932;-75
2024/01/08 08:14:40;;;;;;;;;;;-4.80;99.90;;;;;;5015718;28;19926;-75
2024/01/08 08:17:07;;;;;;;;;;;-4.90;99.90;;;;;;5015036;28;19925;-75
2024/01/08 08:19:35;;;;;;;;;;;-4.80;99.90;;;;;;5014577;28;19925;-75
2024/01/08 08:22:03;;;;;;;;;;;-4.80;99.90;;;;;;5015491;28;19952;-75
2024/01/08 08:24:30;;;;;;;;;;;-4.80;99.90;;;;;;5015360;28;19926;-75
2024/01/08 08:26:56;;;;;;;;;;;-4.80;99.90;;;;;;5014843;28;19926;-75
2024/01/08 08:29:23;;;;;;;;;;;-4.70;99.90;;;;;;5015313;28;19925;-75
2024/01/08 08:31:50;;;;;;;;;;;-4.80;99.90;;;;;;5016067;28;19925;-75
2024/01/08 08:34:16;;;;;;;;;;;-4.80;99.90;;;;;;5017134;28;19965;-75
2024/01/08 08:36:44;;;;;;;;;;;-4.70;99.90;;;;;;5016295;28;19932;-75
2024/01/08 08:39:15;;;;;;;;;;;-4.80;99.90;;;;;;5015377;28;20044;-75
2024/01/08 08:41:41;;;;;;;;;;;-4.80;99.90;;;;;;5015298;28;19936;-75
2024/01/08 08:44:08;;;;;;;;;;;-4.80;99.90;;;;;;5014775;28;20406;-75
2024/01/08 08:46:37;;;;;;;;;;;-4.80;99.90;;;;;;5014928;28;20044;-75
2024/01/08 08:49:03;;;;;;;;;;;-4.80;99.90;;;;;;5014993;28;19929;-75
2024/01/08 08:51:30;;;;;;;;;;;-4.80;99.90;;;;;;5014974;28;19925;-75
2024/01/08 08:53:59;;;;;;;;;;;-4.70;99.90;;;;;;4955019;28;1745229;-75
2024/01/08 08:56:26;;;;;;;;;;;-4.70;99.90;;;;;;5015994;28;19971;-75
2024/01/08 08:58:52;;;;;;;;;;;-4.70;99.90;;;;;;5016547;28;19929;-76
2024/01/08 09:01:19;;;;;;;;;;;-4.70;99.90;;;;;;5015661;28;19933;-76
2024/01/08 09:03:46;;;;;;;;;;;-4.70;99.90;;;;;;5015870;28;19933;-74
2024/01/08 09:06:12;;;;;;;;;;;-4.70;99.90;;;;;;5017373;28;19958;-75
2024/01/08 09:08:39;;;;;;;;;;;-4.70;99.90;;;;;;5015721;28;19936;-75
2024/01/08 09:11:08;;;;;;;;;;;-4.70;99.90;;;;;;5015166;28;19934;-75
2024/01/08 09:13:34;;;;;;;;;;;-4.70;99.90;;;;;;5015630;28;19927;-75
2024/01/08 09:16:01;;;;;;;;;;;-4.60;99.90;;;;;;5015826;28;19925;-75
2024/01/08 09:18:27;;;;;;;;;;;-4.60;99.90;;;;;;5016283;28;19932;-74
2024/01/08 09:20:54;;;;;;;;;;;-4.50;99.90;;;;;;5015256;28;19926;-74
2024/01/08 09:23:21;;;;;;;;;;;-4.50;99.90;;;;;;5016202;28;19929;-75
2024/01/08 09:25:48;;;;;;;;;;;-4.50;99.90;;;;;;5015874;28;19925;-75
2024/01/08 09:28:16;;;;;;;;;;;-4.40;99.90;;;;;;5015113;28;19932;-74
2024/01/08 09:30:42;;;;;;;;;;;-4.40;99.90;;;;;;5014770;28;20330;-74
2024/01/08 09:33:09;;;;;;;;;;;-4.40;99.90;;;;;;5014479;28;20313;-74
2024/01/08 09:35:36;;;;;;;;;;;-4.40;99.90;;;;;;5015000;28;20386;-74
2024/01/08 09:38:03;;;;;;;;;;;-4.40;99.90;;;;;;5015164;28;19925;-75
2024/01/08 09:40:30;;;;;;;;;;;-4.30;99.90;;;;;;5014930;28;19926;-75
2024/01/08 09:42:58;;;;;;;;;;;-4.40;99.90;;;;;;5015314;28;19926;-75
2024/01/08 09:45:27;;;;;;;;;;;-4.40;99.90;;;;;;5014786;28;20445;-75
2024/01/08 09:47:54;;;;;;;;;;;-4.30;99.90;;;;;;5014640;28;19980;-75
2024/01/08 09:50:21;;;;;;;;;;;-4.30;99.90;;;;;;5014329;28;20302;-75
2024/01/08 09:52:48;;;;;;;;;;;-4.30;99.90;;;;;;5014283;28;20371;-75
2024/01/08 09:55:15;;;;;;;;;;;-4.30;99.90;;;;;;5014337;28;20427;-75
2024/01/08 09:57:42;;;;;;;;;;;-4.20;99.90;;;;;;5014656;28;19930;-75
2024/01/08 10:00:09;;;;;;;;;;;-4.30;99.90;;;;;;5014368;28;19926;-75
2024/01/08 10:02:37;;;;;;;;;;;-4.20;99.90;;;;;;5014300;28;19926;-75
2024/01/08 10:05:06;;;;;;;;;;;-4.20;99.90;;;;;;5014292;28;19929;-75
2024/01/08 10:07:33;;;;;;;;;;;-4.20;99.90;;;;;;5014385;28;19926;-75
2024/01/08 10:10:00;;;;;;;;;;;-4.20;99.90;;;;;;5014280;28;19926;-75
2024/01/08 10:12:26;;;;;;;;;;;-4.20;99.90;;;;;;5014102;28;19932;-75
2024/01/08 10:14:54;;;;;;;;;;;-4.20;99.90;;;;;;5015104;28;19933;-75
2024/01/08 10:17:21;;;;;;;;;;;-4.20;99.90;;;;;;5018258;28;20094;-75
2024/01/08 10:19:50;;;;;;;;;;;-4.10;99.90;;;;;;5019919;28;19979;-74
2024/01/08 10:22:17;;;;;;;;;;;-4.10;99.90;;;;;;5020394;28;19927;-74
2024/01/08 10:24:44;;;;;;;;;;;-4.10;99.90;;;;;;5020280;28;20272;-75
2024/01/08 10:27:11;;;;;;;;;;;-4.10;99.90;;;;;;5019612;28;19925;-75
2024/01/08 10:29:38;;;;;;;;;;;-4.10;99.90;;;;;;5019591;28;19925;-75
2024/01/08 10:32:05;;;;;;;;;;;-4.20;99.90;;;;;;5019903;28;19937;-75
2024/01/08 10:34:34;;;;;;;;;;;-4.20;99.90;;;;;;5021658;28;19929;-75
2024/01/08 10:37:02;;;;;;;;;;;-4.20;99.90;;;;;;5019693;28;19933;-75
2024/01/08 10:39:30;;;;;;;;;;;-4.20;99.90;;;;;;5019956;28;19925;-75
2024/01/08 10:41:57;;;;;;;;;;;-4.20;99.90;;;;;;5021102;28;19925;-75
2024/01/08 10:44:23;;;;;;;;;;;-4.20;99.90;;;;;;5019699;28;19925;-75
2024/01/08 10:46:54;;;;;;;;;;;-4.20;99.90;;;;;;5017819;28;19949;-75
2024/01/08 10:49:24;;;;;;;;;;;-4.20;99.90;;;;;;5017691;28;20375;-75
2024/01/08 10:51:51;;;;;;;;;;;-4.20;99.90;;;;;;5017393;28;20020;-75
2024/01/08 10:54:19;;;;;;;;;;;-4.20;99.90;;;;;;5017853;28;19932;-75
2024/01/08 10:56:47;;;;;;;;;;;-4.20;99.90;;;;;;5018029;28;20421;-75
2024/01/08 10:59:18;;;;;;;;;;;-4.20;99.90;;;;;;5019628;28;19981;-75
2024/01/08 11:01:45;;;;;;;;;;;-4.20;99.90;;;;;;5018313;28;19925;-74
2024/01/08 11:04:12;;;;;;;;;;;-4.20;99.90;;;;;;5019491;28;19925;-74
2024/01/08 11:06:41;;;;;;;;;;;-4.20;99.90;;;;;;5017754;28;19929;-74
2024/01/08 11:09:23;;;;;;;;;;;-4.10;99.90;;;;;;5017853;28;19929;-75
2024/01/08 11:11:51;;;;;;;;;;;-4.10;99.90;;;;;;5017797;28;19926;-75
2024/01/08 11:14:17;;;;;;;;;;;-4.00;99.90;;;;;;5017382;28;19926;-75
2024/01/08 11:16:45;;;;;;;;;;;-4.00;99.90;;;;;;5017058;28;19925;-75
2024/01/08 11:19:27;;;;;;;;;;;-4.00;99.90;;;;;;5017046;28;20283;-75
2024/01/08 11:21:56;;;;;;;;;;;-3.90;99.90;;;;;;5017513;28;19933;-75
2024/01/08 11:24:22;;;;;;;;;;;-3.90;99.90;;;;;;5017479;28;19967;-75
2024/01/08 11:26:51;;;;;;;;;;;-3.90;99.90;;;;;;5016782;28;19961;-75
2024/01/08 11:29:19;;;;;;;;;;;-3.80;99.90;;;;;;5016103;28;19980;-75
2024/01/08 11:32:14;;;;;;;;;;;-3.80;99.90;;;;;;5016755;28;19925;-74
2024/01/08 11:35:00;;;;;;;;;;;-3.90;99.90;;;;;;5016930;28;19932;-74
2024/01/08 11:37:29;;;;;;;;;;;-3.70;99.90;;;;;;5017411;28;19926;-74
2024/01/08 11:39:55;;;;;;;;;;;-3.90;99.90;;;;;;5017069;28;19922;-75
2024/01/08 11:42:22;;;;;;;;;;;-3.90;99.90;;;;;;5017097;28;19925;-75
2024/01/08 11:44:50;;;;;;;;;;;-4.00;99.90;;;;;;5016642;28;19987;-75
2024/01/08 11:47:17;;;;;;;;;;;-4.00;99.90;;;;;;5017281;28;19929;-75
2024/01/08 11:49:43;;;;;;;;;;;-4.00;99.90;;;;;;5016932;28;20370;-75
2024/01/08 11:52:10;;;;;;;;;;;-4.00;99.90;;;;;;5016105;28;20379;-75
2024/01/08 11:54:36;;;;;;;;;;;-4.00;99.90;;;;;;5016461;28;19925;-75
2024/01/08 11:57:03;;;;;;;;;;;-4.00;99.90;;;;;;5016401;28;19936;-75
2024/01/08 11:59:30;;;;;;;;;;;-4.00;99.90;;;;;;5016259;28;20291;-75
2024/01/08 12:02:09;;;;;;;;;;;-4.00;99.90;;;;;;5016160;28;19925;-75
2024/01/08 12:04:35;;;;;;;;;;;-4.00;99.90;;;;;;5017640;28;19976;-74
2024/01/08 12:07:02;;;;;;;;;;;-4.00;99.90;;;;;;5017396;28;19933;-75
2024/01/08 12:09:30;;;;;;;;;;;-3.80;99.90;;;;;;5016223;28;19926;-76
2024/01/08 12:12:03;;;;;;;;;;;-3.90;99.90;;;;;;5016168;28;19925;-74
2024/01/08 12:14:29;;;;;;;;;;;-3.90;99.90;;;;;;5015974;28;19932;-74
2024/01/08 12:16:56;;;;;;;;;;;-3.90;99.90;;;;;;5015961;28;19932;-75
2024/01/08 12:19:33;;;;;;;;;;;-3.90;99.90;;;;;;5015783;28;19929;-75
2024/01/08 12:21:59;;;;;;;;;;;-3.90;99.90;;;;;;5015841;28;19932;-74
2024/01/08 12:24:26;;;;;;;;;;;-3.80;99.90;;;;;;5015816;28;19933;-74
2024/01/08 12:26:52;;;;;;;;;;;-3.80;99.90;;;;;;5016957;28;19960;-75
2024/01/08 12:29:19;;;;;;;;;;;-3.80;99.90;;;;;;5015974;28;19932;-75
2024/01/08 12:31:46;;;;;;;;;;;-3.80;99.90;;;;;;5015407;28;19925;-75
2024/01/08 12:34:12;;;;;;;;;;;-3.80;99.90;;;;;;5015721;28;19929;-75
2024/01/08 12:36:40;;;;;;;;;;;-3.80;99.90;;;;;;5015434;28;19929;-75
2024/01/08 12:39:08;;;;;;;;;;;-3.80;99.90;;;;;;5015061;28;19926;-75
2024/01/08 12:41:35;;;;;;;;;;;-3.80;99.90;;;;;;5015319;28;19925;-75
2024/01/08 12:44:03;;;;;;;;;;;-3.90;99.90;;;;;;5015510;28;19925;-74
2024/01/08 12:46:30;;;;;;;;;;;-3.80;99.90;;;;;;5015339;28;19926;-74
2024/01/08 12:48:57;;;;;;;;;;;-3.80;99.90;;;;;;5015481;28;19925;-74
2024/01/08 12:51:24;;;;;;;;;;;-3.80;99.90;;;;;;5015229;28;19929;-74
2024/01/08 12:53:51;;;;;;;;;;;-3.80;99.90;;;;;;5014704;28;19925;-74
2024/01/08 12:56:18;;;;;;;;;;;-3.80;99.90;;;;;;5015296;28;19929;-74
2024/01/08 12:58:45;;;;;;;;;;;-3.70;99.90;;;;;;5015393;28;19933;-75
2024/01/08 13:01:11;;;;;;;;;;;-3.70;99.90;;;;;;5014804;28;19925;-75
2024/01/08 13:03:38;;;;;;;;;;;-3.70;99.90;;;;;;5014518;28;20342;-75
2024/01/08 13:06:07;;;;;;;;;;;-3.70;99.90;;;;;;5014501;28;20387;-75
2024/01/08 13:08:35;;;;;;;;;;;-3.60;99.90;;;;;;5014699;28;19929;-75
2024/01/08 13:11:03;;;;;;;;;;;-3.70;99.90;;;;;;5014795;28;19925;-75
2024/01/08 13:13:30;;;;;;;;;;;-3.70;99.90;;;;;;5014680;28;19925;-75
2024/01/08 13:15:57;;;;;;;;;;;-3.70;99.90;;;;;;5014836;28;19955;-75
2024/01/08 13:18:23;;;;;;;;;;;-3.80;99.90;;;;;;5014741;28;19930;-75
2024/01/08 13:20:50;;;;;;;;;;;-3.70;99.90;;;;;;5014299;28;19925;-75
2024/01/08 13:23:16;;;;;;;;;;;-3.80;99.90;;;;;;5014776;28;19925;-75
2024/01/08 13:25:43;;;;;;;;;;;-3.90;99.90;;;;;;5014681;28;19929;-75
2024/01/08 13:28:11;;;;;;;;;;;-3.80;99.90;;;;;;5014953;28;19933;-75
2024/01/08 13:30:38;;;;;;;;;;;-3.90;99.90;;;;;;5014588;28;19932;-75
2024/01/08 13:33:05;;;;;;;;;;;-3.80;99.90;;;;;;5014470;28;20306;-75
2024/01/08 13:35:31;;;;;;;;;;;-3.90;99.90;;;;;;5015477;28;19925;-75
2024/01/08 13:37:59;;;;;;;;;;;-3.80;99.90;;;;;;5014392;28;19933;-75
2024/01/08 13:40:28;;;;;;;;;;;-3.80;99.90;;;;;;5014778;28;19925;-75
2024/01/08 13:42:55;;;;;;;;;;;-3.80;99.90;;;;;;5014468;28;19987;-76
2024/01/08 13:45:23;;;;;;;;;;;-3.80;99.90;;;;;;5013968;28;20351;-76
2024/01/08 13:47:50;;;;;;;;;;;-3.80;99.90;;;;;;5014055;28;20387;-76
2024/01/08 13:50:18;;;;;;;;;;;-3.80;99.90;;;;;;5014523;28;19926;-75
2024/01/08 13:52:44;;;;;;;;;;;-3.80;99.90;;;;;;5014079;28;19926;-73
2024/01/08 13:55:12;;;;;;;;;;;-3.80;99.90;;;;;;5014352;28;19988;-74
2024/01/08 13:57:38;;;;;;;;;;;-3.80;99.90;;;;;;5014137;28;20344;-74
2024/01/08 14:00:06;;;;;;;;;;;-3.80;99.90;;;;;;5015154;28;20398;-74
2024/01/08 14:02:34;;;;;;;;;;;-3.80;99.90;;;;;;5015078;28;19976;-74
2024/01/08 14:05:00;;;;;;;;;;;-3.80;99.90;;;;;;5014487;28;19925;-74
2024/01/08 14:07:27;;;;;;;;;;;-3.80;99.90;;;;;;5014055;28;19944;-73
2024/01/08 14:09:54;;;;;;;;;;;-3.80;99.90;;;;;;5014116;28;19926;-74
2024/01/08 14:12:20;;;;;;;;;;;-3.90;99.90;;;;;;5014813;28;19932;-74
2024/01/08 14:14:47;;;;;;;;;;;-3.80;99.90;;;;;;5014805;28;19929;-74
2024/01/08 14:17:13;;;;;;;;;;;-3.90;99.90;;;;;;5013968;28;19925;-74
2024/01/08 14:19:41;;;;;;;;;;;-3.80;99.90;;;;;;5013985;28;20267;-74
2024/01/08 14:22:08;;;;;;;;;;;-3.90;99.90;;;;;;5014046;28;19933;-73
2024/01/08 14:24:35;;;;;;;;;;;-3.90;99.90;;;;;;5013897;28;19926;-73
2024/01/08 14:27:02;;;;;;;;;;;-3.90;99.90;;;;;;5013848;28;19975;-74
2024/01/08 14:29:28;;;;;;;;;;;-3.90;99.90;;;;;;5013913;28;19925;-74
2024/01/08 14:31:55;;;;;;;;;;;-3.90;99.90;;;;;;5013958;28;19925;-74
2024/01/08 14:34:24;;;;;;;;;;;-3.90;99.90;;;;;;5013625;28;19976;-74
2024/01/08 14:36:53;;;;;;;;;;;-3.80;99.90;;;;;;5013770;28;19925;-74
2024/01/08 14:39:19;;;;;;;;;;;-3.80;99.90;;;;;;5013976;28;19925;-74
2024/01/08 14:41:46;;;;;;;;;;;-3.90;99.90;;;;;;5013698;28;19925;-73
2024/01/08 14:44:12;;;;;;;;;;;-3.90;99.90;;;;;;5013417;28;19933;-74
2024/01/08 14:46:39;;;;;;;;;;;-3.90;99.90;;;;;;5013531;28;19969;-74
2024/01/08 14:49:06;;;;;;;;;;;-3.90;99.90;;;;;;5013869;28;19929;-72
2024/01/08 14:51:32;;;;;;;;;;;-3.90;99.90;;;;;;5013645;28;19937;-73
2024/01/08 14:54:01;;;;;;;;;;;-3.90;99.90;;;;;;5013325;28;19925;-73
2024/01/08 14:56:27;;;;;;;;;;;-4.00;99.90;;;;;;5014239;28;20264;-73
2024/01/08 14:58:54;;;;;;;;;;;-4.00;99.90;;;;;;5014295;28;20294;-73
2024/01/08 15:01:21;;;;;;;;;;;-4.00;99.90;;;;;;5013941;28;19926;-73
2024/01/08 15:03:47;;;;;;;;;;;-3.80;99.90;;;;;;5015300;28;19932;-73
2024/01/08 15:06:14;;;;;;;;;;;-3.90;99.90;;;;;;5017431;28;19929;-73
2024/01/08 15:08:41;;;;;;;;;;;-3.90;99.90;;;;;;5016995;28;19932;-74
2024/01/08 15:11:09;;;;;;;;;;;-4.00;99.90;;;;;;5017278;28;19933;-74
2024/01/08 15:13:35;;;;;;;;;;;-4.00;99.90;;;;;;5017208;28;19961;-74
2024/01/08 15:16:02;;;;;;;;;;;-4.10;99.90;;;;;;5017009;28;20375;-72
2024/01/08 15:18:29;;;;;;;;;;;-4.10;99.90;;;;;;5017564;28;20268;-74
2024/01/08 15:20:55;;;;;;;;;;;-4.10;99.90;;;;;;5017393;28;20406;-74
2024/01/08 15:23:22;;;;;;;;;;;-4.10;99.90;;;;;;5018540;28;20398;-73
2024/01/08 15:25:49;;;;;;;;;;;-4.10;99.90;;;;;;5018530;28;19925;-75
2024/01/08 15:28:17;;;;;;;;;;;-4.10;99.90;;;;;;5019016;28;19926;-75
2024/01/08 15:30:45;;;;;;;;;;;-4.20;99.90;;;;;;5019078;28;20012;-75
2024/01/08 15:33:12;;;;;;;;;;;-4.20;99.90;;;;;;5018618;28;19925;-76
2024/01/08 15:35:39;;;;;;;;;;;-4.20;99.90;;;;;;5019161;28;19940;-75
2024/01/08 15:38:06;;;;;;;;;;;-4.30;99.90;;;;;;5020055;28;19966;-75
2024/01/08 15:40:32;;;;;;;;;;;-4.20;99.90;;;;;;5019268;28;19925;-76
2024/01/08 15:42:59;;;;;;;;;;;-4.20;99.90;;;;;;5019176;28;19929;-75
2024/01/08 15:45:29;;;;;;;;;;;-4.30;99.90;;;;;;5019253;28;20016;-75
2024/01/08 15:47:55;;;;;;;;;;;-4.20;99.90;;;;;;5021276;28;19976;-76
2024/01/08 15:50:22;;;;;;;;;;;-4.20;99.90;;;;;;5019823;28;20359;-73
2024/01/08 15:52:49;;;;;;;;;;;-4.20;99.90;;;;;;5019843;28;19929;-73
2024/01/08 15:55:16;;;;;;;;;;;-4.20;99.90;;;;;;5017841;28;19981;-73
2024/01/08 15:57:42;;;;;;;;;;;-4.20;99.90;;;;;;5018718;28;20391;-73
2024/01/08 16:00:11;;;;;;;;;;;-4.20;99.90;;;;;;5018469;28;19984;-73
2024/01/08 16:02:39;;;;;;;;;;;-4.20;99.90;;;;;;5019159;28;19975;-73
2024/01/08 16:05:06;;;;;;;;;;;-4.20;99.90;;;;;;5019247;28;19929;-73
2024/01/08 16:07:33;;;;;;;;;;;-4.20;99.90;;;;;;5019115;28;19932;-73
2024/01/08 16:09:59;;;;;;;;;;;-4.30;99.90;;;;;;5018723;28;19925;-75
2024/01/08 16:12:26;;;;;;;;;;;-4.30;99.90;;;;;;5018991;28;20319;-76
2024/01/08 16:14:53;;;;;;;;;;;-4.30;99.90;;;;;;5017795;28;19925;-76
2024/01/08 16:17:20;;;;;;;;;;;-4.30;99.90;;;;;;5018778;28;19926;-76
2024/01/08 16:19:50;;;;;;;;;;;-4.30;99.90;;;;;;5017939;28;19930;-75
2024/01/08 16:22:16;;;;;;;;;;;-4.30;99.90;;;;;;5016793;28;19957;-75
2024/01/08 16:24:43;;;;;;;;;;;-4.20;99.90;;;;;;5017554;28;19960;-75
2024/01/08 16:27:10;;;;;;;;;;;-4.30;99.90;;;;;;5016981;28;19929;-75
2024/01/08 16:29:36;;;;;;;;;;;-4.30;99.90;;;;;;5015616;28;19933;-75
2024/01/08 16:32:03;;;;;;;;;;;-4.30;99.90;;;;;;5016026;28;19925;-74
2024/01/08 16:34:30;;;;;;;;;;;-4.30;99.90;;;;;;5017356;28;19929;-75
2024/01/08 16:36:58;;;;;;;;;;;-4.30;99.90;;;;;;5017433;28;19925;-75
2024/01/08 16:39:25;;;;;;;;;;;-4.20;99.90;;;;;;5016821;28;20355;-75
2024/01/08 16:41:52;;;;;;;;;;;-4.30;99.90;;;;;;5017452;28;19926;-75
2024/01/08 16:44:18;;;;;;;;;;;-4.30;99.90;;;;;;5017934;28;20015;-76
2024/01/08 16:46:45;;;;;;;;;;;-4.20;99.90;;;;;;5018231;28;20495;-75
2024/01/08 16:49:12;;;;;;;;;;;-4.20;99.90;;;;;;5017232;28;19961;-75
2024/01/08 16:51:40;;;;;;;;;;;-4.30;99.90;;;;;;5017154;28;19926;-75
2024/01/08 16:54:09;;;;;;;;;;;-4.30;99.90;;;;;;5016997;28;19937;-76
2024/01/08 16:56:36;;;;;;;;;;;-4.20;99.90;;;;;;5016331;28;20032;-75
2024/01/08 16:59:02;;;;;;;;;;;-4.20;99.90;;;;;;5015819;28;19932;-76
2024/01/08 17:01:33;;;;;;;;;;;-4.10;99.90;;;;;;5015818;28;19975;-75
2024/01/08 17:03:59;;;;;;;;;;;-4.20;99.90;;;;;;5016168;28;19926;-76
2024/01/08 17:06:26;;;;;;;;;;;-4.20;99.90;;;;;;5015869;28;19926;-75
2024/01/08 17:08:55;;;;;;;;;;;-4.30;99.90;;;;;;5015214;28;19948;-75
2024/01/08 17:11:22;;;;;;;;;;;-4.20;99.90;;;;;;5017051;28;19929;-75
2024/01/08 17:13:49;;;;;;;;;;;-4.20;99.90;;;;;;5014834;28;19931;-74
2024/01/08 17:16:16;;;;;;;;;;;-4.20;99.90;;;;;;5014937;28;19932;-74
2024/01/08 17:18:43;;;;;;;;;;;-4.20;99.90;;;;;;5014751;28;20318;-74
2024/01/08 17:21:10;;;;;;;;;;;-4.20;99.90;;;;;;5014480;28;20410;-75
2024/01/08 17:23:36;;;;;;;;;;;-4.20;99.90;;;;;;5015006;28;19969;-75
2024/01/08 17:26:03;;;;;;;;;;;-4.20;99.90;;;;;;5014086;28;20307;-75
2024/01/08 17:28:31;;;;;;;;;;;-4.10;99.90;;;;;;5016540;28;19925;-75
2024/01/08 17:30:57;;;;;;;;;;;-4.10;99.90;;;;;;5014259;28;20383;-75
2024/01/08 17:33:24;;;;;;;;;;;-4.20;99.90;;;;;;5014269;28;20307;-75
2024/01/08 17:35:50;;;;;;;;;;;-4.20;99.90;;;;;;5014326;28;19925;-75
2024/01/08 17:38:17;;;;;;;;;;;-4.20;99.90;;;;;;5014628;28;19926;-75
2024/01/08 17:40:44;;;;;;;;;;;-4.20;99.90;;;;;;5014920;28;19968;-76
2024/01/08 17:43:10;;;;;;;;;;;-4.10;99.90;;;;;;5014392;28;19929;-76
2024/01/08 17:45:38;;;;;;;;;;;-4.20;99.90;;;;;;5014687;28;19925;-75
2024/01/08 17:48:05;;;;;;;;;;;-4.10;99.90;;;;;;5014409;28;20008;-74
2024/01/08 17:50:33;;;;;;;;;;;-4.10;99.90;;;;;;5013931;28;19926;-75
2024/01/08 17:52:59;;;;;;;;;;;-4.10;99.90;;;;;;5014232;28;19948;-75
2024/01/08 17:55:26;;;;;;;;;;;-4.10;99.90;;;;;;5014008;28;20390;-74
2024/01/08 17:57:53;;;;;;;;;;;-4.10;99.90;;;;;;5014752;28;19926;-75
2024/01/08 18:00:19;;;;;;;;;;;-4.10;99.90;;;;;;5014288;28;19972;-75
2024/01/08 18:02:47;;;;;;;;;;;-4.10;99.90;;;;;;5014010;28;20409;-75
2024/01/08 18:05:14;;;;;;;;;;;-4.00;99.90;;;;;;5014128;28;19925;-75
2024/01/08 18:07:41;;;;;;;;;;;-4.10;99.90;;;;;;5014490;28;19961;-75
2024/01/08 18:10:08;;;;;;;;;;;-4.10;99.90;;;;;;5014262;28;19926;-75
2024/01/08 18:12:34;;;;;;;;;;;-4.10;99.90;;;;;;5014162;28;19926;-75
2024/01/08 18:15:01;;;;;;;;;;;-4.10;99.90;;;;;;5018378;28;19925;-74
2024/01/08 18:17:27;;;;;;;;;;;-4.10;99.90;;;;;;5019325;28;19964;-74
2024/01/08 18:19:57;;;;;;;;;;;-3.90;99.90;;;;;;5016990;28;20298;-75
2024/01/08 18:22:24;;;;;;;;;;;-4.00;99.90;;;;;;5015610;28;19925;-75
2024/01/08 18:24:51;;;;;;;;;;;-4.00;99.90;;;;;;5016670;28;19976;-75
2024/01/08 18:27:17;;;;;;;;;;;-4.10;99.90;;;;;;5018133;28;19925;-74
2024/01/08 18:29:46;;;;;;;;;;;-4.10;99.90;;;;;;5017860;28;19926;-75
2024/01/08 18:32:14;;;;;;;;;;;-4.10;99.90;;;;;;5017768;28;20016;-76
2024/01/08 18:34:40;;;;;;;;;;;-4.10;99.90;;;;;;5018367;28;19925;-77
2024/01/08 18:37:08;;;;;;;;;;;-4.10;99.90;;;;;;5018942;28;19933;-76
2024/01/08 18:39:35;;;;;;;;;;;-4.10;99.90;;;;;;5022705;28;20001;-77
2024/01/08 18:42:01;;;;;;;;;;;-4.10;99.90;;;;;;5022617;28;19926;-77
2024/01/08 18:44:28;;;;;;;;;;;-4.10;99.90;;;;;;5022102;28;19925;-77
2024/01/08 18:46:54;;;;;;;;;;;-4.10;99.90;;;;;;5022110;28;19929;-76
2024/01/08 18:49:22;;;;;;;;;;;-4.10;99.90;;;;;;5022171;28;19926;-77
2024/01/08 18:51:48;;;;;;;;;;;-4.00;99.90;;;;;;5021825;28;19926;-77
2024/01/08 18:54:16;;;;;;;;;;;-4.10;99.90;;;;;;5021816;28;19951;-78
2024/01/08 18:56:43;;;;;;;;;;;-4.00;99.90;;;;;;5022172;28;19925;-78
2024/01/08 18:59:10;;;;;;;;;;;-4.10;99.90;;;;;;5021790;28;19929;-76
2024/01/08 19:01:37;;;;;;;;;;;-4.20;99.90;;;;;;5023745;28;19936;-77
2024/01/08 19:04:03;;;;;;;;;;;-4.10;99.90;;;;;;5023198;28;19925;-76
2024/01/08 19:06:30;;;;;;;;;;;-4.10;99.90;;;;;;5021875;28;19932;-76
2024/01/08 19:08:57;;;;;;;;;;;-4.10;99.90;;;;;;5020549;28;19930;-77